sensor_id;sensor_type;location;lat;lon;timestamp;P1;durP1;ratioP1;P2;durP2;ratioP2
58567;SDS011;44354;46.192;-1.076;2023-01-28T00:02:07;17.48;;;16.58;;
58567;SDS011;44354;46.192;-1.076;2023-01-28T00:04:32;18.35;;;17.27;;
58567;SDS011;44354;46.192;-1.076;2023-01-28T00:06:58;18.40;;;17.25;;
58567;SDS011;44354;46.192;-1.076;2023-01-28T00:09:24;17.88;;;16.98;;
58567;SDS011;44354;46.192;-1.076;2023-01-28T00:11:49;20.42;;;19.25;;
58567;SDS011;44354;46.192;-1.076;2023-01-28T00:14:16;18.67;;;17.67;;
58567;SDS011;44354;46.192;-1.076;2023-01-28T00:16:41;19.85;;;18.60;;
58567;SDS011;44354;46.192;-1.076;2023-01-28T00:19:07;20.52;;;19.42;;
58567;SDS011;44354;46.192;-1.076;2023-01-28T00:21:33;18.48;;;17.48;;
58567;SDS011;44354;46.192;-1.076;2023-01-28T00:23:59;19.48;;;18.38;;
58567;SDS011;44354;46.192;-1.076;2023-01-28T00:26:24;18.65;;;17.70;;
58567;SDS011;44354;46.192;-1.076;2023-01-28T00:28:50;17.98;;;17.08;;
58567;SDS011;44354;46.192;-1.076;2023-01-28T00:31:20;19.83;;;18.83;;
58567;SDS011;44354;46.192;-1.076;2023-01-28T00:33:48;20.08;;;19.08;;
58567;SDS011;44354;46.192;-1.076;2023-01-28T00:36:15;21.13;;;20.02;;
58567;SDS011;44354;46.192;-1.076;2023-01-28T00:38:42;21.08;;;19.88;;
58567;SDS011;44354;46.192;-1.076;2023-01-28T00:43:34;21.38;;;20.27;;
58567;SDS011;44354;46.192;-1.076;2023-01-28T00:46:01;20.65;;;19.58;;
58567;SDS011;44354;46.192;-1.076;2023-01-28T00:48:27;20.05;;;19.05;;
58567;SDS011;44354;46.192;-1.076;2023-01-28T00:50:53;21.60;;;20.48;;
58567;SDS011;44354;46.192;-1.076;2023-01-28T00:53:18;22.85;;;21.50;;
58567;SDS011;44354;46.192;-1.076;2023-01-28T00:55:44;23.35;;;21.95;;
58567;SDS011;44354;46.192;-1.076;2023-01-28T00:58:10;20.48;;;19.27;;
58567;SDS011;44354;46.192;-1.076;2023-01-28T01:00:35;22.20;;;20.98;;
58567;SDS011;44354;46.192;-1.076;2023-01-28T01:03:01;21.33;;;20.20;;
58567;SDS011;44354;46.192;-1.076;2023-01-28T01:05:27;22.05;;;20.67;;
58567;SDS011;44354;46.192;-1.076;2023-01-28T01:07:53;19.25;;;18.25;;
58567;SDS011;44354;46.192;-1.076;2023-01-28T01:10:20;20.85;;;19.75;;
58567;SDS011;44354;46.192;-1.076;2023-01-28T01:12:46;22.80;;;21.35;;
58567;SDS011;44354;46.192;-1.076;2023-01-28T01:15:13;24.65;;;23.25;;
58567;SDS011;44354;46.192;-1.076;2023-01-28T01:17:40;24.20;;;22.90;;
58567;SDS011;44354;46.192;-1.076;2023-01-28T01:20:10;21.67;;;20.58;;
58567;SDS011;44354;46.192;-1.076;2023-01-28T01:22:41;25.33;;;24.02;;
58567;SDS011;44354;46.192;-1.076;2023-01-28T01:25:07;26.52;;;25.02;;
58567;SDS011;44354;46.192;-1.076;2023-01-28T01:27:33;23.10;;;21.90;;
58567;SDS011;44354;46.192;-1.076;2023-01-28T01:29:59;22.50;;;21.33;;
58567;SDS011;44354;46.192;-1.076;2023-01-28T01:32:28;23.35;;;21.98;;
58567;SDS011;44354;46.192;-1.076;2023-01-28T01:34:54;24.17;;;22.92;;
58567;SDS011;44354;46.192;-1.076;2023-01-28T01:37:20;23.92;;;22.65;;
58567;SDS011;44354;46.192;-1.076;2023-01-28T01:39:46;25.05;;;23.75;;
58567;SDS011;44354;46.192;-1.076;2023-01-28T01:42:12;24.10;;;22.80;;
58567;SDS011;44354;46.192;-1.076;2023-01-28T01:47:26;24.83;;;23.52;;
58567;SDS011;44354;46.192;-1.076;2023-01-28T01:50:23;24.63;;;23.25;;
58567;SDS011;44354;46.192;-1.076;2023-01-28T01:53:07;26.63;;;25.13;;
58567;SDS011;44354;46.192;-1.076;2023-01-28T01:55:37;24.02;;;22.70;;
58567;SDS011;44354;46.192;-1.076;2023-01-28T01:58:06;25.13;;;23.83;;
58567;SDS011;44354;46.192;-1.076;2023-01-28T02:00:36;25.65;;;24.10;;
58567;SDS011;44354;46.192;-1.076;2023-01-28T02:03:03;25.38;;;23.98;;
58567;SDS011;44354;46.192;-1.076;2023-01-28T02:05:29;24.23;;;22.83;;
58567;SDS011;44354;46.192;-1.076;2023-01-28T02:07:55;25.88;;;24.48;;
58567;SDS011;44354;46.192;-1.076;2023-01-28T02:10:41;27.45;;;25.90;;
58567;SDS011;44354;46.192;-1.076;2023-01-28T02:13:08;24.75;;;23.35;;
58567;SDS011;44354;46.192;-1.076;2023-01-28T02:15:34;27.20;;;25.48;;
58567;SDS011;44354;46.192;-1.076;2023-01-28T02:18:00;24.73;;;23.42;;
58567;SDS011;44354;46.192;-1.076;2023-01-28T02:20:46;25.83;;;24.50;;
58567;SDS011;44354;46.192;-1.076;2023-01-28T02:23:38;23.55;;;22.35;;
58567;SDS011;44354;46.192;-1.076;2023-01-28T02:26:32;24.95;;;23.65;;
58567;SDS011;44354;46.192;-1.076;2023-01-28T02:35:10;26.38;;;24.95;;
58567;SDS011;44354;46.192;-1.076;2023-01-28T02:37:43;26.67;;;25.13;;
58567;SDS011;44354;46.192;-1.076;2023-01-28T02:40:36;24.52;;;23.23;;
58567;SDS011;44354;46.192;-1.076;2023-01-28T02:43:44;22.50;;;21.33;;
58567;SDS011;44354;46.192;-1.076;2023-01-28T02:49:11;25.35;;;24.05;;
58567;SDS011;44354;46.192;-1.076;2023-01-28T02:51:45;29.95;;;27.83;;
58567;SDS011;44354;46.192;-1.076;2023-01-28T03:00:18;24.77;;;23.48;;
58567;SDS011;44354;46.192;-1.076;2023-01-28T03:05:54;27.10;;;25.67;;
58567;SDS011;44354;46.192;-1.076;2023-01-28T03:08:37;27.83;;;26.23;;
58567;SDS011;44354;46.192;-1.076;2023-01-28T03:11:26;25.77;;;23.90;;
58567;SDS011;44354;46.192;-1.076;2023-01-28T03:14:13;26.33;;;24.85;;
58567;SDS011;44354;46.192;-1.076;2023-01-28T03:19:45;26.20;;;24.63;;
58567;SDS011;44354;46.192;-1.076;2023-01-28T03:22:31;26.77;;;25.25;;
58567;SDS011;44354;46.192;-1.076;2023-01-28T03:25:19;24.73;;;23.42;;
58567;SDS011;44354;46.192;-1.076;2023-01-28T03:28:07;25.27;;;23.98;;
58567;SDS011;44354;46.192;-1.076;2023-01-28T03:30:56;27.92;;;26.20;;
58567;SDS011;44354;46.192;-1.076;2023-01-28T03:33:41;28.75;;;26.80;;
58567;SDS011;44354;46.192;-1.076;2023-01-28T03:36:26;26.63;;;25.23;;
58567;SDS011;44354;46.192;-1.076;2023-01-28T03:39:11;27.02;;;25.48;;
58567;SDS011;44354;46.192;-1.076;2023-01-28T03:41:36;28.77;;;27.17;;
58567;SDS011;44354;46.192;-1.076;2023-01-28T03:44:02;26.80;;;24.98;;
58567;SDS011;44354;46.192;-1.076;2023-01-28T03:46:46;26.75;;;25.33;;
58567;SDS011;44354;46.192;-1.076;2023-01-28T03:49:13;25.50;;;24.00;;
58567;SDS011;44354;46.192;-1.076;2023-01-28T03:51:40;25.05;;;23.75;;
58567;SDS011;44354;46.192;-1.076;2023-01-28T03:54:06;25.05;;;23.65;;
58567;SDS011;44354;46.192;-1.076;2023-01-28T03:56:32;27.45;;;26.02;;
58567;SDS011;44354;46.192;-1.076;2023-01-28T03:59:02;27.17;;;25.67;;
58567;SDS011;44354;46.192;-1.076;2023-01-28T04:01:28;27.40;;;25.83;;
58567;SDS011;44354;46.192;-1.076;2023-01-28T04:03:53;27.20;;;25.50;;
58567;SDS011;44354;46.192;-1.076;2023-01-28T04:06:19;27.30;;;25.60;;
58567;SDS011;44354;46.192;-1.076;2023-01-28T04:08:45;26.98;;;25.58;;
58567;SDS011;44354;46.192;-1.076;2023-01-28T04:11:13;27.73;;;26.02;;
58567;SDS011;44354;46.192;-1.076;2023-01-28T04:13:43;28.55;;;26.73;;
58567;SDS011;44354;46.192;-1.076;2023-01-28T04:16:13;29.05;;;27.45;;
58567;SDS011;44354;46.192;-1.076;2023-01-28T04:18:40;27.17;;;25.67;;
58567;SDS011;44354;46.192;-1.076;2023-01-28T04:21:07;27.45;;;26.05;;
58567;SDS011;44354;46.192;-1.076;2023-01-28T04:23:33;28.38;;;26.83;;
58567;SDS011;44354;46.192;-1.076;2023-01-28T04:25:59;26.55;;;25.15;;
58567;SDS011;44354;46.192;-1.076;2023-01-28T04:28:24;31.08;;;28.45;;
58567;SDS011;44354;46.192;-1.076;2023-01-28T04:30:50;24.73;;;23.42;;
58567;SDS011;44354;46.192;-1.076;2023-01-28T04:33:16;27.45;;;25.92;;
58567;SDS011;44354;46.192;-1.076;2023-01-28T04:35:42;28.15;;;26.63;;
58567;SDS011;44354;46.192;-1.076;2023-01-28T04:38:08;27.25;;;25.75;;
58567;SDS011;44354;46.192;-1.076;2023-01-28T04:40:34;27.50;;;26.00;;
58567;SDS011;44354;46.192;-1.076;2023-01-28T04:42:59;27.17;;;25.77;;
58567;SDS011;44354;46.192;-1.076;2023-01-28T04:45:25;27.48;;;25.85;;
58567;SDS011;44354;46.192;-1.076;2023-01-28T04:47:51;28.60;;;26.90;;
58567;SDS011;44354;46.192;-1.076;2023-01-28T04:50:16;28.02;;;26.42;;
58567;SDS011;44354;46.192;-1.076;2023-01-28T04:52:42;28.15;;;26.45;;
58567;SDS011;44354;46.192;-1.076;2023-01-28T04:55:08;27.40;;;25.85;;
58567;SDS011;44354;46.192;-1.076;2023-01-28T04:57:35;27.33;;;25.83;;
58567;SDS011;44354;46.192;-1.076;2023-01-28T05:00:01;27.13;;;25.58;;
58567;SDS011;44354;46.192;-1.076;2023-01-28T05:02:27;25.00;;;23.60;;
58567;SDS011;44354;46.192;-1.076;2023-01-28T05:04:53;25.50;;;24.15;;
58567;SDS011;44354;46.192;-1.076;2023-01-28T05:07:18;25.13;;;23.83;;
58567;SDS011;44354;46.192;-1.076;2023-01-28T05:09:44;29.00;;;27.15;;
58567;SDS011;44354;46.192;-1.076;2023-01-28T05:12:10;30.50;;;28.67;;
58567;SDS011;44354;46.192;-1.076;2023-01-28T05:14:35;26.33;;;24.92;;
58567;SDS011;44354;46.192;-1.076;2023-01-28T05:17:01;26.30;;;24.90;;
58567;SDS011;44354;46.192;-1.076;2023-01-28T05:19:27;26.25;;;24.80;;
58567;SDS011;44354;46.192;-1.076;2023-01-28T05:21:52;26.48;;;25.00;;
58567;SDS011;44354;46.192;-1.076;2023-01-28T05:24:18;26.20;;;24.80;;
58567;SDS011;44354;46.192;-1.076;2023-01-28T05:26:45;28.05;;;26.45;;
58567;SDS011;44354;46.192;-1.076;2023-01-28T05:29:10;27.65;;;26.00;;
58567;SDS011;44354;46.192;-1.076;2023-01-28T05:31:36;28.05;;;26.35;;
58567;SDS011;44354;46.192;-1.076;2023-01-28T05:34:02;28.67;;;26.92;;
58567;SDS011;44354;46.192;-1.076;2023-01-28T05:36:27;28.35;;;26.55;;
58567;SDS011;44354;46.192;-1.076;2023-01-28T05:38:53;26.70;;;25.08;;
58567;SDS011;44354;46.192;-1.076;2023-01-28T05:41:19;25.25;;;23.85;;
58567;SDS011;44354;46.192;-1.076;2023-01-28T05:43:44;33.42;;;31.45;;
58567;SDS011;44354;46.192;-1.076;2023-01-28T05:46:10;29.27;;;26.80;;
58567;SDS011;44354;46.192;-1.076;2023-01-28T05:48:35;29.55;;;27.25;;
58567;SDS011;44354;46.192;-1.076;2023-01-28T05:51:01;25.17;;;23.83;;
58567;SDS011;44354;46.192;-1.076;2023-01-28T05:53:29;24.85;;;23.45;;
58567;SDS011;44354;46.192;-1.076;2023-01-28T05:55:55;25.10;;;23.60;;
58567;SDS011;44354;46.192;-1.076;2023-01-28T05:58:21;23.98;;;22.67;;
58567;SDS011;44354;46.192;-1.076;2023-01-28T06:00:47;24.20;;;22.60;;
58567;SDS011;44354;46.192;-1.076;2023-01-28T06:03:12;24.58;;;23.20;;
58567;SDS011;44354;46.192;-1.076;2023-01-28T06:05:38;24.50;;;23.20;;
58567;SDS011;44354;46.192;-1.076;2023-01-28T06:08:04;28.27;;;26.27;;
58567;SDS011;44354;46.192;-1.076;2023-01-28T06:10:30;24.15;;;22.75;;
58567;SDS011;44354;46.192;-1.076;2023-01-28T06:12:55;25.30;;;23.73;;
58567;SDS011;44354;46.192;-1.076;2023-01-28T06:15:21;25.20;;;23.80;;
58567;SDS011;44354;46.192;-1.076;2023-01-28T06:17:47;28.58;;;26.58;;
58567;SDS011;44354;46.192;-1.076;2023-01-28T06:20:12;27.05;;;25.23;;
58567;SDS011;44354;46.192;-1.076;2023-01-28T06:22:38;28.55;;;26.35;;
58567;SDS011;44354;46.192;-1.076;2023-01-28T06:25:04;25.92;;;24.52;;
58567;SDS011;44354;46.192;-1.076;2023-01-28T06:27:30;25.55;;;23.92;;
58567;SDS011;44354;46.192;-1.076;2023-01-28T06:29:56;27.52;;;25.98;;
58567;SDS011;44354;46.192;-1.076;2023-01-28T06:32:21;25.00;;;23.70;;
58567;SDS011;44354;46.192;-1.076;2023-01-28T06:34:47;28.55;;;26.63;;
58567;SDS011;44354;46.192;-1.076;2023-01-28T06:37:13;28.83;;;27.00;;
58567;SDS011;44354;46.192;-1.076;2023-01-28T06:39:39;27.02;;;25.52;;
58567;SDS011;44354;46.192;-1.076;2023-01-28T06:42:05;28.80;;;26.45;;
58567;SDS011;44354;46.192;-1.076;2023-01-28T06:44:30;27.42;;;25.63;;
58567;SDS011;44354;46.192;-1.076;2023-01-28T06:46:56;29.67;;;27.35;;
58567;SDS011;44354;46.192;-1.076;2023-01-28T06:49:22;28.90;;;27.05;;
58567;SDS011;44354;46.192;-1.076;2023-01-28T06:51:47;28.80;;;26.65;;
58567;SDS011;44354;46.192;-1.076;2023-01-28T06:54:14;23.55;;;22.33;;
58567;SDS011;44354;46.192;-1.076;2023-01-28T06:56:39;29.00;;;26.95;;
58567;SDS011;44354;46.192;-1.076;2023-01-28T06:59:05;26.30;;;24.80;;
58567;SDS011;44354;46.192;-1.076;2023-01-28T07:01:31;24.58;;;23.00;;
58567;SDS011;44354;46.192;-1.076;2023-01-28T07:03:58;26.73;;;24.77;;
58567;SDS011;44354;46.192;-1.076;2023-01-28T07:06:23;28.58;;;26.95;;
58567;SDS011;44354;46.192;-1.076;2023-01-28T07:08:49;26.63;;;25.13;;
58567;SDS011;44354;46.192;-1.076;2023-01-28T07:11:15;29.33;;;27.17;;
58567;SDS011;44354;46.192;-1.076;2023-01-28T07:13:40;27.25;;;25.58;;
58567;SDS011;44354;46.192;-1.076;2023-01-28T07:16:07;27.25;;;25.38;;
58567;SDS011;44354;46.192;-1.076;2023-01-28T07:18:33;27.02;;;25.08;;
58567;SDS011;44354;46.192;-1.076;2023-01-28T07:20:59;24.85;;;23.45;;
58567;SDS011;44354;46.192;-1.076;2023-01-28T07:23:25;27.40;;;25.48;;
58567;SDS011;44354;46.192;-1.076;2023-01-28T07:25:50;26.45;;;24.58;;
58567;SDS011;44354;46.192;-1.076;2023-01-28T07:28:16;25.70;;;24.10;;
58567;SDS011;44354;46.192;-1.076;2023-01-28T07:30:48;25.00;;;23.50;;
58567;SDS011;44354;46.192;-1.076;2023-01-28T07:33:14;26.17;;;24.17;;
58567;SDS011;44354;46.192;-1.076;2023-01-28T07:35:41;26.10;;;24.70;;
58567;SDS011;44354;46.192;-1.076;2023-01-28T07:38:06;27.35;;;25.70;;
58567;SDS011;44354;46.192;-1.076;2023-01-28T07:40:34;28.15;;;25.75;;
58567;SDS011;44354;46.192;-1.076;2023-01-28T07:43:00;27.25;;;25.80;;
58567;SDS011;44354;46.192;-1.076;2023-01-28T07:45:26;27.88;;;26.13;;
58567;SDS011;44354;46.192;-1.076;2023-01-28T07:47:58;27.35;;;25.60;;
58567;SDS011;44354;46.192;-1.076;2023-01-28T07:50:25;29.10;;;27.13;;
58567;SDS011;44354;46.192;-1.076;2023-01-28T07:52:53;27.05;;;25.35;;
58567;SDS011;44354;46.192;-1.076;2023-01-28T07:55:19;23.77;;;22.42;;
58567;SDS011;44354;46.192;-1.076;2023-01-28T08:00:18;25.27;;;23.77;;
58567;SDS011;44354;46.192;-1.076;2023-01-28T08:02:45;26.70;;;25.05;;
58567;SDS011;44354;46.192;-1.076;2023-01-28T08:05:15;27.13;;;25.30;;
58567;SDS011;44354;46.192;-1.076;2023-01-28T08:07:43;22.98;;;21.77;;
58567;SDS011;44354;46.192;-1.076;2023-01-28T08:10:10;31.27;;;29.17;;
58567;SDS011;44354;46.192;-1.076;2023-01-28T08:12:36;23.42;;;22.13;;
58567;SDS011;44354;46.192;-1.076;2023-01-28T08:15:03;25.65;;;24.33;;
58567;SDS011;44354;46.192;-1.076;2023-01-28T08:17:29;25.05;;;23.58;;
58567;SDS011;44354;46.192;-1.076;2023-01-28T08:19:55;25.70;;;24.00;;
58567;SDS011;44354;46.192;-1.076;2023-01-28T08:22:24;23.08;;;21.85;;
58567;SDS011;44354;46.192;-1.076;2023-01-28T08:24:50;32.17;;;29.80;;
58567;SDS011;44354;46.192;-1.076;2023-01-28T08:27:20;25.23;;;23.92;;
58567;SDS011;44354;46.192;-1.076;2023-01-28T08:29:51;24.65;;;23.35;;
58567;SDS011;44354;46.192;-1.076;2023-01-28T08:32:20;28.75;;;26.50;;
58567;SDS011;44354;46.192;-1.076;2023-01-28T08:34:45;26.17;;;24.60;;
58567;SDS011;44354;46.192;-1.076;2023-01-28T08:37:11;25.60;;;24.17;;
58567;SDS011;44354;46.192;-1.076;2023-01-28T08:39:37;23.67;;;22.40;;
58567;SDS011;44354;46.192;-1.076;2023-01-28T08:42:03;21.13;;;20.02;;
58567;SDS011;44354;46.192;-1.076;2023-01-28T08:44:30;27.05;;;25.42;;
58567;SDS011;44354;46.192;-1.076;2023-01-28T08:46:55;24.75;;;23.13;;
58567;SDS011;44354;46.192;-1.076;2023-01-28T08:49:21;25.65;;;23.83;;
58567;SDS011;44354;46.192;-1.076;2023-01-28T08:51:47;25.10;;;23.42;;
58567;SDS011;44354;46.192;-1.076;2023-01-28T08:54:13;27.88;;;26.15;;
58567;SDS011;44354;46.192;-1.076;2023-01-28T08:56:38;26.88;;;25.02;;
58567;SDS011;44354;46.192;-1.076;2023-01-28T08:59:07;27.95;;;26.38;;
58567;SDS011;44354;46.192;-1.076;2023-01-28T09:01:32;27.10;;;25.60;;
58567;SDS011;44354;46.192;-1.076;2023-01-28T09:03:59;25.60;;;24.02;;
58567;SDS011;44354;46.192;-1.076;2023-01-28T09:06:24;27.58;;;25.65;;
58567;SDS011;44354;46.192;-1.076;2023-01-28T09:08:50;26.23;;;24.50;;
58567;SDS011;44354;46.192;-1.076;2023-01-28T09:11:16;24.55;;;23.15;;
58567;SDS011;44354;46.192;-1.076;2023-01-28T09:13:41;25.80;;;24.40;;
58567;SDS011;44354;46.192;-1.076;2023-01-28T09:16:07;26.35;;;24.75;;
58567;SDS011;44354;46.192;-1.076;2023-01-28T09:18:33;25.45;;;23.80;;
58567;SDS011;44354;46.192;-1.076;2023-01-28T09:20:59;22.60;;;21.40;;
58567;SDS011;44354;46.192;-1.076;2023-01-28T09:23:29;24.88;;;22.98;;
58567;SDS011;44354;46.192;-1.076;2023-01-28T09:26:00;23.88;;;22.38;;
58567;SDS011;44354;46.192;-1.076;2023-01-28T09:28:27;24.45;;;23.08;;
58567;SDS011;44354;46.192;-1.076;2023-01-28T09:30:59;26.00;;;24.35;;
58567;SDS011;44354;46.192;-1.076;2023-01-28T09:33:29;23.48;;;22.05;;
58567;SDS011;44354;46.192;-1.076;2023-01-28T09:35:55;24.27;;;22.70;;
58567;SDS011;44354;46.192;-1.076;2023-01-28T09:38:23;23.02;;;21.48;;
58567;SDS011;44354;46.192;-1.076;2023-01-28T09:40:48;23.98;;;22.55;;
58567;SDS011;44354;46.192;-1.076;2023-01-28T09:46:11;26.38;;;24.60;;
58567;SDS011;44354;46.192;-1.076;2023-01-28T09:48:40;23.33;;;21.92;;
58567;SDS011;44354;46.192;-1.076;2023-01-28T09:51:10;24.23;;;22.73;;
58567;SDS011;44354;46.192;-1.076;2023-01-28T09:53:55;24.15;;;22.70;;
58567;SDS011;44354;46.192;-1.076;2023-01-28T09:56:25;25.52;;;24.00;;
58567;SDS011;44354;46.192;-1.076;2023-01-28T09:58:57;25.20;;;23.73;;
58567;SDS011;44354;46.192;-1.076;2023-01-28T10:04:52;22.65;;;21.25;;
58567;SDS011;44354;46.192;-1.076;2023-01-28T10:07:39;20.60;;;19.50;;
58567;SDS011;44354;46.192;-1.076;2023-01-28T10:12:49;21.00;;;19.90;;
58567;SDS011;44354;46.192;-1.076;2023-01-28T10:18:07;21.58;;;20.38;;
58567;SDS011;44354;46.192;-1.076;2023-01-28T10:20:36;26.58;;;24.45;;
58567;SDS011;44354;46.192;-1.076;2023-01-28T10:23:14;22.35;;;21.02;;
58567;SDS011;44354;46.192;-1.076;2023-01-28T10:25:40;20.95;;;19.65;;
58567;SDS011;44354;46.192;-1.076;2023-01-28T10:28:33;22.00;;;20.83;;
58567;SDS011;44354;46.192;-1.076;2023-01-28T10:30:58;23.80;;;22.17;;
58567;SDS011;44354;46.192;-1.076;2023-01-28T10:35:56;21.63;;;20.52;;
58567;SDS011;44354;46.192;-1.076;2023-01-28T10:38:24;21.98;;;20.70;;
58567;SDS011;44354;46.192;-1.076;2023-01-28T10:40:51;21.30;;;19.88;;
58567;SDS011;44354;46.192;-1.076;2023-01-28T10:43:22;20.63;;;19.52;;
58567;SDS011;44354;46.192;-1.076;2023-01-28T10:46:04;20.00;;;19.00;;
58567;SDS011;44354;46.192;-1.076;2023-01-28T10:48:39;20.38;;;19.17;;
58567;SDS011;44354;46.192;-1.076;2023-01-28T10:51:09;18.53;;;17.57;;
58567;SDS011;44354;46.192;-1.076;2023-01-28T10:53:39;21.83;;;20.13;;
58567;SDS011;44354;46.192;-1.076;2023-01-28T10:56:10;20.98;;;19.48;;
58567;SDS011;44354;46.192;-1.076;2023-01-28T10:59:05;17.67;;;16.77;;
58567;SDS011;44354;46.192;-1.076;2023-01-28T11:01:53;18.20;;;17.02;;
58567;SDS011;44354;46.192;-1.076;2023-01-28T11:04:23;15.18;;;14.38;;
58567;SDS011;44354;46.192;-1.076;2023-01-28T11:06:55;15.57;;;14.75;;
58567;SDS011;44354;46.192;-1.076;2023-01-28T11:09:27;18.00;;;16.80;;
58567;SDS011;44354;46.192;-1.076;2023-01-28T11:12:12;22.08;;;19.85;;
58567;SDS011;44354;46.192;-1.076;2023-01-28T11:15:04;18.63;;;17.13;;
58567;SDS011;44354;46.192;-1.076;2023-01-28T11:17:34;18.77;;;17.58;;
58567;SDS011;44354;46.192;-1.076;2023-01-28T11:20:12;18.45;;;16.98;;
58567;SDS011;44354;46.192;-1.076;2023-01-28T11:22:45;19.17;;;17.70;;
58567;SDS011;44354;46.192;-1.076;2023-01-28T11:25:15;17.83;;;16.55;;
58567;SDS011;44354;46.192;-1.076;2023-01-28T11:27:51;19.90;;;18.20;;
58567;SDS011;44354;46.192;-1.076;2023-01-28T11:32:56;17.67;;;16.63;;
58567;SDS011;44354;46.192;-1.076;2023-01-28T11:35:34;18.10;;;16.65;;
58567;SDS011;44354;46.192;-1.076;2023-01-28T11:38:00;29.20;;;17.67;;
58567;SDS011;44354;46.192;-1.076;2023-01-28T11:40:26;16.10;;;14.98;;
58567;SDS011;44354;46.192;-1.076;2023-01-28T11:42:53;14.70;;;13.77;;
58567;SDS011;44354;46.192;-1.076;2023-01-28T11:45:34;16.77;;;15.23;;
58567;SDS011;44354;46.192;-1.076;2023-01-28T11:51:21;14.57;;;13.70;;
58567;SDS011;44354;46.192;-1.076;2023-01-28T12:09:34;16.92;;;15.63;;
58567;SDS011;44354;46.192;-1.076;2023-01-28T12:28:42;10.60;;;10.10;;
58567;SDS011;44354;46.192;-1.076;2023-01-28T12:44:50;12.65;;;11.75;;
58567;SDS011;44354;46.192;-1.076;2023-01-28T12:47:27;12.45;;;11.65;;
58567;SDS011;44354;46.192;-1.076;2023-01-28T12:50:00;13.10;;;12.35;;
58567;SDS011;44354;46.192;-1.076;2023-01-28T12:52:38;11.57;;;10.93;;
58567;SDS011;44354;46.192;-1.076;2023-01-28T12:55:15;10.48;;;9.77;;
58567;SDS011;44354;46.192;-1.076;2023-01-28T12:57:55;12.15;;;11.18;;
58567;SDS011;44354;46.192;-1.076;2023-01-28T13:00:32;13.32;;;12.40;;
58567;SDS011;44354;46.192;-1.076;2023-01-28T13:05:51;12.25;;;11.32;;
58567;SDS011;44354;46.192;-1.076;2023-01-28T13:08:26;12.98;;;12.00;;
58567;SDS011;44354;46.192;-1.076;2023-01-28T13:10:53;14.05;;;12.68;;
58567;SDS011;44354;46.192;-1.076;2023-01-28T13:13:31;15.38;;;13.82;;
58567;SDS011;44354;46.192;-1.076;2023-01-28T13:16:01;12.48;;;11.40;;
58567;SDS011;44354;46.192;-1.076;2023-01-28T13:18:42;12.98;;;12.07;;
58567;SDS011;44354;46.192;-1.076;2023-01-28T13:21:14;11.90;;;10.85;;
58567;SDS011;44354;46.192;-1.076;2023-01-28T13:23:44;14.10;;;12.45;;
58567;SDS011;44354;46.192;-1.076;2023-01-28T13:28:43;10.25;;;9.55;;
58567;SDS011;44354;46.192;-1.076;2023-01-28T13:31:13;10.93;;;10.23;;
58567;SDS011;44354;46.192;-1.076;2023-01-28T13:34:00;11.13;;;10.25;;
58567;SDS011;44354;46.192;-1.076;2023-01-28T13:36:28;13.18;;;12.07;;
58567;SDS011;44354;46.192;-1.076;2023-01-28T13:39:04;11.90;;;11.00;;
58567;SDS011;44354;46.192;-1.076;2023-01-28T13:41:40;11.80;;;10.93;;
58567;SDS011;44354;46.192;-1.076;2023-01-28T13:44:16;12.20;;;11.13;;
58567;SDS011;44354;46.192;-1.076;2023-01-28T13:46:42;10.02;;;9.35;;
58567;SDS011;44354;46.192;-1.076;2023-01-28T13:49:09;12.82;;;11.80;;
58567;SDS011;44354;46.192;-1.076;2023-01-28T13:51:48;10.95;;;9.60;;
58567;SDS011;44354;46.192;-1.076;2023-01-28T13:54:47;13.35;;;11.52;;
58567;SDS011;44354;46.192;-1.076;2023-01-28T14:00:28;10.63;;;10.02;;
58567;SDS011;44354;46.192;-1.076;2023-01-28T14:14:54;10.73;;;10.00;;
58567;SDS011;44354;46.192;-1.076;2023-01-28T14:22:49;10.70;;;10.00;;
58567;SDS011;44354;46.192;-1.076;2023-01-28T14:25:23;10.60;;;10.00;;
58567;SDS011;44354;46.192;-1.076;2023-01-28T14:27:58;11.50;;;10.85;;
58567;SDS011;44354;46.192;-1.076;2023-01-28T14:33:12;11.90;;;11.07;;
58567;SDS011;44354;46.192;-1.076;2023-01-28T14:35:39;11.07;;;10.35;;
58567;SDS011;44354;46.192;-1.076;2023-01-28T14:38:12;10.18;;;9.65;;
58567;SDS011;44354;46.192;-1.076;2023-01-28T14:40:41;10.85;;;10.05;;
58567;SDS011;44354;46.192;-1.076;2023-01-28T14:43:11;12.45;;;11.38;;
58567;SDS011;44354;46.192;-1.076;2023-01-28T14:51:35;10.75;;;10.15;;
58567;SDS011;44354;46.192;-1.076;2023-01-28T14:55:03;11.82;;;11.02;;
58567;SDS011;44354;46.192;-1.076;2023-01-28T14:57:40;11.43;;;10.45;;
58567;SDS011;44354;46.192;-1.076;2023-01-28T15:02:44;10.82;;;10.23;;
58567;SDS011;44354;46.192;-1.076;2023-01-28T15:05:14;11.40;;;10.80;;
58567;SDS011;44354;46.192;-1.076;2023-01-28T15:07:42;10.77;;;10.13;;
58567;SDS011;44354;46.192;-1.076;2023-01-28T15:12:41;11.98;;;11.07;;
58567;SDS011;44354;46.192;-1.076;2023-01-28T15:18:02;12.95;;;11.75;;
58567;SDS011;44354;46.192;-1.076;2023-01-28T15:20:31;11.65;;;10.98;;
58567;SDS011;44354;46.192;-1.076;2023-01-28T15:22:57;15.05;;;13.70;;
58567;SDS011;44354;46.192;-1.076;2023-01-28T15:25:26;11.27;;;10.68;;
58567;SDS011;44354;46.192;-1.076;2023-01-28T15:27:54;10.95;;;10.20;;
58567;SDS011;44354;46.192;-1.076;2023-01-28T15:30:25;10.95;;;10.35;;
58567;SDS011;44354;46.192;-1.076;2023-01-28T15:33:12;12.35;;;11.65;;
58567;SDS011;44354;46.192;-1.076;2023-01-28T15:36:14;12.68;;;11.88;;
58567;SDS011;44354;46.192;-1.076;2023-01-28T15:38:33;10.43;;;9.88;;
58567;SDS011;44354;46.192;-1.076;2023-01-28T15:41:00;11.55;;;10.85;;
58567;SDS011;44354;46.192;-1.076;2023-01-28T15:45:55;11.85;;;11.25;;
58567;SDS011;44354;46.192;-1.076;2023-01-28T15:48:29;10.65;;;9.73;;
58567;SDS011;44354;46.192;-1.076;2023-01-28T15:51:01;9.93;;;9.43;;
58567;SDS011;44354;46.192;-1.076;2023-01-28T15:53:44;12.40;;;11.57;;
58567;SDS011;44354;46.192;-1.076;2023-01-28T15:56:12;9.68;;;9.18;;
58567;SDS011;44354;46.192;-1.076;2023-01-28T15:58:39;16.67;;;15.32;;
58567;SDS011;44354;46.192;-1.076;2023-01-28T16:03:35;12.43;;;11.05;;
58567;SDS011;44354;46.192;-1.076;2023-01-28T16:08:50;14.32;;;13.32;;
58567;SDS011;44354;46.192;-1.076;2023-01-28T16:11:27;12.35;;;11.55;;
58567;SDS011;44354;46.192;-1.076;2023-01-28T16:14:05;11.23;;;10.48;;
58567;SDS011;44354;46.192;-1.076;2023-01-28T16:16:32;13.63;;;12.48;;
58567;SDS011;44354;46.192;-1.076;2023-01-28T16:19:22;13.68;;;12.68;;
58567;SDS011;44354;46.192;-1.076;2023-01-28T16:22:07;14.27;;;13.00;;
58567;SDS011;44354;46.192;-1.076;2023-01-28T16:24:47;11.50;;;10.82;;
58567;SDS011;44354;46.192;-1.076;2023-01-28T16:27:22;15.95;;;14.70;;
58567;SDS011;44354;46.192;-1.076;2023-01-28T16:29:49;11.82;;;11.10;;
58567;SDS011;44354;46.192;-1.076;2023-01-28T16:34:53;12.65;;;11.82;;
58567;SDS011;44354;46.192;-1.076;2023-01-28T16:37:18;12.88;;;11.95;;
58567;SDS011;44354;46.192;-1.076;2023-01-28T16:39:44;11.65;;;11.05;;
58567;SDS011;44354;46.192;-1.076;2023-01-28T16:42:10;12.98;;;11.85;;
58567;SDS011;44354;46.192;-1.076;2023-01-28T16:44:35;13.10;;;12.35;;
58567;SDS011;44354;46.192;-1.076;2023-01-28T16:47:03;13.10;;;12.30;;
58567;SDS011;44354;46.192;-1.076;2023-01-28T16:49:29;17.48;;;16.23;;
58567;SDS011;44354;46.192;-1.076;2023-01-28T16:51:55;12.30;;;11.70;;
58567;SDS011;44354;46.192;-1.076;2023-01-28T16:54:21;12.23;;;11.52;;